Time;durP1;ratioP1;P1;durP2;ratioP2;P2;SDS_P1;SDS_P2;PMS_P1;PMS_P2;Temp;Humidity;BMP_temperature;BMP_pressure;BME280_temperature;BME280_humidity;BME280_pressure;Samples;Min_cycle;Max_cycle;Signal;HPM_P1;HPM_P2
2022/09/09 00:01:30;;;;;;;11.88;8.38;;;15.70;99.90;;;;;;5111415;28;20047;-72
2022/09/09 00:04:14;;;;;;;11.73;8.15;;;15.60;99.90;;;;;;5113922;28;20073;-71
2022/09/09 00:06:50;;;;;;;11.77;8.15;;;15.60;99.90;;;;;;5113627;28;20072;-72
2022/09/09 00:09:18;;;;;;;11.48;8.63;;;15.60;99.90;;;;;;5113467;28;20407;-73
2022/09/09 00:11:56;;;;;;;11.25;7.70;;;15.60;99.90;;;;;;5094270;28;20036;-73
2022/09/09 00:14:55;;;;;;;10.55;7.55;;;15.60;99.90;;;;;;5105066;28;20122;-73
2022/09/09 00:18:00;;;;;;;9.95;6.65;;;15.50;99.90;;;;;;5080591;28;20051;-73
2022/09/09 00:20:45;;;;;;;11.02;7.47;;;15.40;99.90;;;;;;5082603;28;20480;-73
2022/09/09 00:23:20;;;;;;;11.75;7.28;;;15.40;99.90;;;;;;5113303;28;20100;-72
2022/09/09 00:25:51;;;;;;;10.52;7.63;;;15.40;99.90;;;;;;5112825;28;20487;-72
2022/09/09 00:28:24;;;;;;;9.60;6.88;;;15.40;99.90;;;;;;5113150;28;20039;-72
2022/09/09 00:30:50;;;;;;;10.35;7.22;;;15.30;99.90;;;;;;5113970;28;20119;-72
2022/09/09 00:33:22;;;;;;;9.52;6.88;;;15.30;99.90;;;;;;5111040;28;20531;-73
2022/09/09 00:35:50;;;;;;;11.10;7.10;;;15.30;99.90;;;;;;5114004;28;20050;-72
2022/09/09 00:38:34;;;;;;;9.00;6.47;;;15.30;99.90;;;;;;5112718;28;20480;-72
2022/09/09 00:41:03;;;;;;;10.50;6.82;;;15.30;99.90;;;;;;5113911;28;20407;-73
2022/09/09 00:43:32;;;;;;;10.45;6.90;;;15.40;99.90;;;;;;5097275;28;20040;-72
2022/09/09 00:46:19;;;;;;;11.00;6.97;;;15.40;99.90;;;;;;5093678;28;20032;-72
2022/09/09 00:49:09;;;;;;;9.95;6.78;;;15.40;99.90;;;;;;5106320;28;20043;-72
2022/09/09 00:51:59;;;;;;;9.40;6.20;;;15.40;99.90;;;;;;5112438;28;20078;-72
2022/09/09 00:54:48;;;;;;;10.50;7.25;;;15.30;99.90;;;;;;5113779;28;20039;-73
2022/09/09 00:57:32;;;;;;;10.77;7.10;;;15.30;99.90;;;;;;5094126;28;20040;-74
2022/09/09 01:00:07;;;;;;;11.13;7.25;;;15.30;99.90;;;;;;5103186;28;20064;-73
2022/09/09 01:02:47;;;;;;;11.02;7.07;;;15.30;99.90;;;;;;5093468;28;20043;-73
2022/09/09 01:05:24;;;;;;;10.32;6.70;;;15.30;99.90;;;;;;5090874;28;20040;-73
2022/09/09 01:07:50;;;;;;;9.60;6.60;;;15.40;99.90;;;;;;5098813;28;20051;-74
2022/09/09 01:10:46;;;;;;;11.65;6.80;;;15.30;99.90;;;;;;5111565;28;20050;-73
2022/09/09 01:13:30;;;;;;;10.75;6.20;;;15.20;99.90;;;;;;5106844;28;20403;-72
2022/09/09 01:15:59;;;;;;;12.45;6.78;;;15.30;99.90;;;;;;5105955;28;20047;-74
2022/09/09 01:18:30;;;;;;;11.07;6.80;;;15.20;99.90;;;;;;5096177;28;20510;-73
2022/09/09 01:21:09;;;;;;;11.00;6.88;;;15.20;99.90;;;;;;5096665;28;20044;-73
2022/09/09 01:23:48;;;;;;;9.02;6.18;;;15.20;99.90;;;;;;5097485;28;20062;-73
2022/09/09 01:26:39;;;;;;;10.23;6.05;;;15.20;99.90;;;;;;5097212;28;20032;-73
2022/09/09 01:29:09;;;;;;;10.40;6.47;;;15.30;99.90;;;;;;5108561;28;20554;-74
2022/09/09 01:31:56;;;;;;;10.18;6.65;;;15.30;99.90;;;;;;5115871;27;20047;-74
2022/09/09 01:34:25;;;;;;;12.05;6.40;;;15.30;99.90;;;;;;5117482;28;20043;-73
2022/09/09 01:37:00;;;;;;;10.52;6.47;;;15.20;99.90;;;;;;5117505;28;20055;-73
2022/09/09 01:39:26;;;;;;;11.80;7.45;;;15.20;99.90;;;;;;5080943;28;20071;-74
2022/09/09 01:41:54;;;;;;;9.27;6.40;;;15.20;99.90;;;;;;5116152;28;20036;-74
2022/09/09 01:44:20;;;;;;;8.88;5.95;;;15.20;99.90;;;;;;5117377;28;20036;-73
2022/09/09 01:46:46;;;;;;;9.63;6.25;;;15.20;99.90;;;;;;5115619;28;20038;-73
2022/09/09 01:49:12;;;;;;;10.50;6.35;;;15.10;99.90;;;;;;5117145;28;20133;-73
2022/09/09 01:51:41;;;;;;;13.05;6.00;;;15.10;99.90;;;;;;5117046;28;20395;-74
2022/09/09 01:54:07;;;;;;;13.90;5.95;;;15.20;99.90;;;;;;5116146;28;20092;-74
2022/09/09 01:56:40;;;;;;;8.88;6.13;;;15.20;99.90;;;;;;5116076;28;20032;-75
2022/09/09 01:59:30;;;;;;;10.05;6.13;;;15.10;99.90;;;;;;5115763;28;20047;-75
2022/09/09 02:02:17;;;;;;;11.23;6.18;;;15.10;99.90;;;;;;5116905;28;20487;-74
2022/09/09 02:04:48;;;;;;;8.65;5.70;;;15.10;99.90;;;;;;5094951;28;20403;-73
2022/09/09 02:07:22;;;;;;;10.43;6.47;;;15.00;99.90;;;;;;5096501;28;20040;-73
2022/09/09 02:09:53;;;;;;;10.27;6.43;;;15.00;99.90;;;;;;5096207;28;20036;-73
2022/09/09 02:12:24;;;;;;;10.93;6.22;;;15.00;99.90;;;;;;5096326;28;20044;-73
2022/09/09 02:14:59;;;;;;;9.35;5.55;;;15.00;99.90;;;;;;5096313;28;20476;-73
2022/09/09 02:17:36;;;;;;;10.25;6.00;;;15.00;99.90;;;;;;5095740;28;20036;-74
2022/09/09 02:20:14;;;;;;;10.60;5.70;;;15.00;99.90;;;;;;5096255;28;20462;-74
2022/09/09 02:22:43;;;;;;;8.38;5.65;;;15.00;99.90;;;;;;5107054;28;20039;-74
2022/09/09 02:25:12;;;;;;;9.68;5.63;;;15.00;99.90;;;;;;5116470;28;20071;-74
2022/09/09 02:27:40;;;;;;;9.95;5.63;;;15.00;99.90;;;;;;5111167;28;20043;-74
2022/09/09 02:30:07;;;;;;;9.55;5.13;;;15.10;99.90;;;;;;5104721;28;20039;-74
2022/09/09 02:32:35;;;;;;;9.50;6.13;;;15.10;99.90;;;;;;5115925;28;20031;-73
2022/09/09 02:35:06;;;;;;;10.05;5.90;;;15.10;99.90;;;;;;5102539;27;20443;-73
2022/09/09 02:37:36;;;;;;;10.30;5.47;;;15.10;99.90;;;;;;5095720;28;20040;-72
2022/09/09 02:40:04;;;;;;;12.40;5.70;;;15.20;99.90;;;;;;5094639;28;20048;-72
2022/09/09 02:42:30;;;;;;;10.52;5.35;;;15.20;99.90;;;;;;5095161;28;20076;-72
2022/09/09 02:44:56;;;;;;;10.68;6.13;;;15.20;99.90;;;;;;5095663;28;20036;-73
2022/09/09 02:47:30;;;;;;;8.80;5.13;;;15.20;99.90;;;;;;5095653;28;20109;-73
2022/09/09 02:50:17;;;;;;;11.73;5.00;;;15.20;99.90;;;;;;5095420;28;20480;-73
2022/09/09 02:52:52;;;;;;;9.40;4.60;;;15.30;99.90;;;;;;5100210;28;20035;-73
2022/09/09 02:55:39;;;;;;;10.30;5.22;;;15.30;99.90;;;;;;5111259;28;20035;-73
2022/09/09 02:58:10;;;;;;;11.30;4.93;;;15.30;99.90;;;;;;5103206;28;20086;-74
2022/09/09 03:00:37;;;;;;;7.40;4.18;;;15.40;99.90;;;;;;5107692;28;20124;-74
2022/09/09 03:03:04;;;;;;;9.32;3.78;;;15.30;99.90;;;;;;5097173;28;20067;-73
2022/09/09 03:05:29;;;;;;;7.78;3.65;;;15.40;99.90;;;;;;5096169;28;20399;-73
2022/09/09 03:07:55;;;;;;;11.52;4.38;;;15.40;99.90;;;;;;5099146;27;20048;-74
2022/09/09 03:10:20;;;;;;;8.75;4.10;;;15.50;99.90;;;;;;5131921;27;20131;-73
2022/09/09 03:12:46;;;;;;;9.93;4.15;;;15.50;99.90;;;;;;5097909;28;20498;-74
2022/09/09 03:15:13;;;;;;;8.73;4.00;;;15.50;99.90;;;;;;5112622;28;20040;-74
2022/09/09 03:17:39;;;;;;;7.00;3.90;;;15.50;99.90;;;;;;5114170;28;20054;-73
2022/09/09 03:20:05;;;;;;;10.73;4.10;;;15.50;99.90;;;;;;5113156;28;20043;-72
2022/09/09 03:22:30;;;;;;;9.45;3.72;;;15.50;99.90;;;;;;5108615;27;20051;-73
2022/09/09 03:24:56;;;;;;;9.60;3.90;;;15.50;99.90;;;;;;5101534;27;20400;-73
2022/09/09 03:27:22;;;;;;;9.52;3.58;;;15.50;99.90;;;;;;5131669;27;20047;-72
2022/09/09 03:29:51;;;;;;;8.95;4.20;;;15.50;99.90;;;;;;5108728;27;20035;-72
2022/09/09 03:32:17;;;;;;;8.18;4.30;;;15.50;99.90;;;;;;5112147;28;20063;-72
2022/09/09 03:34:43;;;;;;;8.55;3.58;;;15.40;99.90;;;;;;5111981;28;20060;-71
2022/09/09 03:37:08;;;;;;;10.18;3.80;;;15.40;99.90;;;;;;5106235;28;20032;-73
2022/09/09 03:39:34;;;;;;;6.47;3.17;;;15.40;99.90;;;;;;5108091;28;20396;-72
2022/09/09 03:42:03;;;;;;;7.13;3.60;;;15.40;99.90;;;;;;5112300;27;20028;-73
2022/09/09 03:44:30;;;;;;;7.68;3.65;;;15.40;99.90;;;;;;5113726;28;20399;-72
2022/09/09 03:46:55;;;;;;;8.25;3.80;;;15.40;99.90;;;;;;5110357;28;20044;-72
2022/09/09 03:49:22;;;;;;;8.48;3.88;;;15.40;99.90;;;;;;5102804;28;20050;-71
2022/09/09 03:51:47;;;;;;;7.18;3.50;;;15.40;99.90;;;;;;5098895;28;20036;-71
2022/09/09 03:54:13;;;;;;;7.93;3.40;;;15.40;99.90;;;;;;5106129;28;20580;-72
2022/09/09 03:56:41;;;;;;;7.22;3.38;;;15.40;99.90;;;;;;5106705;28;20039;-72
2022/09/09 03:59:08;;;;;;;8.25;3.20;;;15.40;99.90;;;;;;5105265;28;20481;-72
2022/09/09 04:01:34;;;;;;;7.80;3.42;;;15.50;99.90;;;;;;5108779;28;20118;-72
2022/09/09 04:04:01;;;;;;;5.43;2.70;;;15.60;99.90;;;;;;5111303;28;20124;-71
2022/09/09 04:06:27;;;;;;;7.75;2.83;;;15.50;99.90;;;;;;5114400;28;20527;-73
2022/09/09 04:08:53;;;;;;;6.03;2.28;;;15.50;99.90;;;;;;5111260;28;20063;-73
2022/09/09 04:11:19;;;;;;;6.20;2.30;;;15.50;99.90;;;;;;5113305;28;20503;-72
2022/09/09 04:13:45;;;;;;;6.47;2.50;;;15.50;99.90;;;;;;5104085;28;20032;-73
2022/09/09 04:16:15;;;;;;;6.72;2.28;;;15.50;99.90;;;;;;5093711;28;20048;-74
2022/09/09 04:18:41;;;;;;;7.05;3.00;;;15.50;99.90;;;;;;5097909;27;20514;-74
2022/09/09 04:21:06;;;;;;;8.77;3.17;;;15.50;99.90;;;;;;5110970;28;20035;-73
2022/09/09 04:23:33;;;;;;;9.48;3.50;;;15.50;99.90;;;;;;5111034;28;20040;-72
2022/09/09 04:26:01;;;;;;;7.32;3.60;;;15.50;99.90;;;;;;5128256;27;20046;-72
2022/09/09 04:28:29;;;;;;;7.38;3.38;;;15.50;99.90;;;;;;5107377;28;20047;-71
2022/09/09 04:30:56;;;;;;;8.98;3.78;;;15.50;99.90;;;;;;5112729;28;20046;-72
2022/09/09 04:33:26;;;;;;;7.95;3.88;;;15.50;99.90;;;;;;5111110;27;20068;-73
2022/09/09 04:35:55;;;;;;;6.80;3.90;;;15.50;99.90;;;;;;5099588;28;20040;-72
2022/09/09 04:38:22;;;;;;;8.98;4.25;;;15.50;99.90;;;;;;5100421;28;20100;-72
2022/09/09 04:40:49;;;;;;;8.70;4.38;;;15.40;99.90;;;;;;5106137;28;20043;-71
2022/09/09 04:43:15;;;;;;;8.18;4.72;;;15.50;99.90;;;;;;5105173;28;20028;-71
2022/09/09 04:45:41;;;;;;;9.95;4.65;;;15.50;99.90;;;;;;5093455;28;20036;-71
2022/09/09 04:48:09;;;;;;;7.93;3.88;;;15.50;99.90;;;;;;5099313;28;20039;-72
2022/09/09 04:50:35;;;;;;;8.32;4.88;;;15.50;99.90;;;;;;5093356;28;20051;-73
2022/09/09 04:53:05;;;;;;;9.25;4.50;;;15.50;99.90;;;;;;5099579;28;20040;-73
2022/09/09 04:55:31;;;;;;;9.45;5.32;;;15.50;99.90;;;;;;5112653;28;20070;-72
2022/09/09 04:57:57;;;;;;;8.07;5.00;;;15.50;99.90;;;;;;5106435;28;20035;-72
2022/09/09 05:00:24;;;;;;;8.57;5.70;;;15.50;99.90;;;;;;5092999;28;20043;-72
2022/09/09 05:02:50;;;;;;;9.02;5.60;;;15.40;99.90;;;;;;5103692;28;20040;-72
2022/09/09 05:05:16;;;;;;;9.95;6.53;;;15.40;99.90;;;;;;5112577;28;20500;-72
2022/09/09 05:07:42;;;;;;;9.75;5.93;;;15.40;99.90;;;;;;5107418;28;20051;-72
2022/09/09 05:10:08;;;;;;;10.27;6.35;;;15.40;99.90;;;;;;5111127;28;20153;-72
2022/09/09 05:12:33;;;;;;;8.40;5.90;;;15.40;99.90;;;;;;5106413;28;20230;-72
2022/09/09 05:14:59;;;;;;;9.80;6.40;;;15.40;99.90;;;;;;5096559;28;20114;-71
2022/09/09 05:17:24;;;;;;;10.70;6.20;;;15.50;99.90;;;;;;5099232;28;20086;-71
2022/09/09 05:19:50;;;;;;;9.38;6.18;;;15.40;99.90;;;;;;5112504;28;20036;-71
2022/09/09 05:22:22;;;;;;;10.57;6.00;;;15.40;99.90;;;;;;5097504;28;20055;-72
2022/09/09 05:24:50;;;;;;;9.75;6.28;;;15.50;99.90;;;;;;5080506;28;20061;-71
2022/09/09 05:27:19;;;;;;;10.40;6.70;;;15.50;99.90;;;;;;5108236;28;20063;-72
2022/09/09 05:29:45;;;;;;;10.48;6.28;;;15.40;99.90;;;;;;5105155;28;20036;-72
2022/09/09 05:32:10;;;;;;;9.82;6.95;;;15.50;99.90;;;;;;5092971;28;20051;-71
2022/09/09 05:34:37;;;;;;;9.50;6.32;;;15.50;99.90;;;;;;5098442;28;20028;-72
2022/09/09 05:37:04;;;;;;;9.02;6.07;;;15.50;99.90;;;;;;5112068;28;20387;-71
2022/09/09 05:39:29;;;;;;;8.45;5.38;;;15.50;99.90;;;;;;5099974;27;20035;-72
2022/09/09 05:41:55;;;;;;;9.57;6.00;;;15.30;99.90;;;;;;5111743;28;20081;-72
2022/09/09 05:44:23;;;;;;;8.98;6.10;;;15.40;99.90;;;;;;5090512;28;20040;-72
2022/09/09 05:46:49;;;;;;;10.18;5.32;;;15.40;99.90;;;;;;5100912;28;20044;-72
2022/09/09 05:49:15;;;;;;;10.15;5.95;;;15.40;99.90;;;;;;5111757;28;20104;-72
2022/09/09 05:51:42;;;;;;;11.23;5.75;;;15.30;99.90;;;;;;5111312;28;20510;-72
2022/09/09 05:54:08;;;;;;;10.18;5.55;;;15.30;99.90;;;;;;5111415;28;20055;-72
2022/09/09 05:56:34;;;;;;;9.63;5.85;;;15.40;99.90;;;;;;5111587;28;20032;-72
2022/09/09 05:59:00;;;;;;;10.32;5.75;;;15.40;99.90;;;;;;5097104;28;20180;-72
2022/09/09 06:01:29;;;;;;;9.57;6.20;;;15.40;99.90;;;;;;5108461;28;20040;-72
2022/09/09 06:03:55;;;;;;;8.45;5.25;;;15.40;99.90;;;;;;5111059;28;20406;-72
2022/09/09 06:06:27;;;;;;;9.02;5.75;;;15.40;99.90;;;;;;5114528;28;20123;-72
2022/09/09 06:08:57;;;;;;;10.48;5.55;;;15.40;99.90;;;;;;5107433;27;20035;-72
2022/09/09 06:11:27;;;;;;;9.93;5.82;;;15.40;99.90;;;;;;5111275;28;20035;-72
2022/09/09 06:13:54;;;;;;;9.13;5.32;;;15.40;99.90;;;;;;5113793;28;20043;-72
2022/09/09 06:16:23;;;;;;;9.95;6.05;;;15.40;99.90;;;;;;5097139;28;20075;-72
2022/09/09 06:18:50;;;;;;;8.43;5.68;;;15.40;99.90;;;;;;5103608;27;20096;-72
2022/09/09 06:21:30;;;;;;;8.77;5.80;;;15.40;99.90;;;;;;5099954;27;20043;-72
2022/09/09 06:23:56;;;;;;;9.60;6.40;;;15.50;99.90;;;;;;5109394;27;20060;-73
2022/09/09 06:26:23;;;;;;;10.32;6.10;;;15.40;99.90;;;;;;5102439;27;20110;-73
2022/09/09 06:28:50;;;;;;;8.80;5.55;;;15.40;99.90;;;;;;5101130;28;20040;-74
2022/09/09 06:31:21;;;;;;;9.63;5.78;;;15.50;99.90;;;;;;5096945;28;20032;-73
2022/09/09 06:33:49;;;;;;;11.68;5.90;;;15.40;99.90;;;;;;5113824;28;20035;-74
2022/09/09 06:36:20;;;;;;;8.93;5.72;;;15.50;99.90;;;;;;5094822;28;20043;-74
2022/09/09 06:38:46;;;;;;;9.98;5.72;;;15.40;99.90;;;;;;5111349;28;20531;-73
2022/09/09 06:41:14;;;;;;;9.10;5.43;;;15.40;99.90;;;;;;5112662;28;20396;-78
2022/09/09 06:43:40;;;;;;;9.50;5.70;;;15.50;99.90;;;;;;5094145;28;20512;-72
2022/09/09 06:46:19;;;;;;;8.20;6.15;;;15.50;99.90;;;;;;5114957;28;20040;-72
2022/09/09 06:48:45;;;;;;;9.75;6.28;;;15.60;99.90;;;;;;5112587;28;20156;-72
2022/09/09 06:51:21;;;;;;;8.80;5.97;;;15.60;99.90;;;;;;5112752;28;20027;-72
2022/09/09 06:53:49;;;;;;;8.50;5.53;;;15.60;99.90;;;;;;5117130;27;20036;-72
2022/09/09 06:56:24;;;;;;;9.52;5.88;;;15.60;99.90;;;;;;5106756;28;20070;-72
2022/09/09 06:58:51;;;;;;;8.63;5.78;;;15.70;99.90;;;;;;5103072;28;20414;-72
2022/09/09 07:01:23;;;;;;;9.52;6.40;;;15.60;99.90;;;;;;5109632;27;20476;-72
2022/09/09 07:03:50;;;;;;;7.43;4.93;;;15.70;99.90;;;;;;5104684;28;20075;-72
2022/09/09 07:06:23;;;;;;;9.75;5.97;;;15.70;99.90;;;;;;5109995;28;20354;-73
2022/09/09 07:08:58;;;;;;;8.63;5.82;;;15.70;99.90;;;;;;5112455;28;20098;-72
2022/09/09 07:11:27;;;;;;;10.68;6.03;;;15.70;99.90;;;;;;5108493;28;20034;-73
2022/09/09 07:13:54;;;;;;;10.32;5.70;;;15.70;99.90;;;;;;5104757;28;20032;-73
2022/09/09 07:16:21;;;;;;;9.95;5.40;;;15.70;99.90;;;;;;5109931;28;20066;-72
2022/09/09 07:18:47;;;;;;;9.32;5.45;;;15.70;99.90;;;;;;5108418;28;20050;-72
2022/09/09 07:21:14;;;;;;;9.57;5.80;;;15.80;99.90;;;;;;5104155;28;20040;-72
2022/09/09 07:23:41;;;;;;;9.00;5.13;;;15.90;99.90;;;;;;5101227;28;20040;-72
2022/09/09 07:26:11;;;;;;;9.43;5.55;;;15.90;99.90;;;;;;5094599;28;20040;-72
2022/09/09 07:28:38;;;;;;;9.23;5.05;;;15.90;99.90;;;;;;5107879;28;20036;-72
2022/09/09 07:31:05;;;;;;;10.30;4.93;;;16.00;99.90;;;;;;5111833;28;20484;-72
2022/09/09 07:33:33;;;;;;;8.93;4.93;;;16.00;99.90;;;;;;5096729;28;20396;-73
2022/09/09 07:36:13;;;;;;;10.05;5.25;;;16.00;99.90;;;;;;5107200;28;20040;-72
2022/09/09 07:38:39;;;;;;;8.80;5.05;;;16.00;99.90;;;;;;5110889;28;20395;-72
2022/09/09 07:41:11;;;;;;;9.50;5.25;;;16.10;99.90;;;;;;5110319;28;20042;-72
2022/09/09 07:43:38;;;;;;;;;;;16.10;99.90;;;;;;5111368;28;20063;-72
2022/09/09 07:46:05;;;;;;;10.30;4.82;;;16.10;99.90;;;;;;5109480;28;19916;-72
2022/09/09 07:48:31;;;;;;;7.82;4.60;;;16.10;99.90;;;;;;5102890;27;20087;-72
2022/09/09 07:51:12;;;;;;;8.43;5.07;;;16.10;99.90;;;;;;5111792;28;20046;-72
2022/09/09 07:53:39;;;;;;;9.95;4.88;;;16.20;99.90;;;;;;5098017;28;20032;-72
2022/09/09 07:56:09;;;;;;;8.68;4.50;;;16.10;99.90;;;;;;5105088;28;20036;-72
2022/09/09 07:58:35;;;;;;;8.95;4.50;;;16.20;99.90;;;;;;5094805;28;20523;-72
2022/09/09 08:01:17;;;;;;;8.15;4.72;;;16.20;99.90;;;;;;5104795;28;20040;-72
2022/09/09 08:03:44;;;;;;;10.02;5.05;;;16.20;99.90;;;;;;5103052;28;20092;-71
2022/09/09 08:06:11;;;;;;;9.88;4.60;;;16.20;99.90;;;;;;5105411;28;20463;-72
2022/09/09 08:08:38;;;;;;;7.78;4.07;;;16.30;99.90;;;;;;5112782;28;20072;-72
2022/09/09 08:11:12;;;;;;;7.50;4.03;;;16.50;99.90;;;;;;5113080;28;20058;-72
2022/09/09 08:13:39;;;;;;;8.27;3.88;;;16.30;99.90;;;;;;5095897;28;20043;-73
2022/09/09 08:16:14;;;;;;;10.38;5.30;;;16.40;99.90;;;;;;5107002;28;20395;-72
2022/09/09 08:18:40;;;;;;;7.93;4.38;;;16.40;99.90;;;;;;5111436;28;20040;-73
2022/09/09 08:21:08;;;;;;;8.30;4.40;;;16.40;99.90;;;;;;5096137;27;20168;-73
2022/09/09 08:23:34;;;;;;;8.93;4.88;;;16.50;99.90;;;;;;5108265;28;20082;-72
2022/09/09 08:26:21;;;;;;;8.88;4.68;;;16.50;99.90;;;;;;5120608;27;20403;-72
2022/09/09 08:28:47;;;;;;;8.25;4.63;;;16.50;99.90;;;;;;5106989;28;20048;-72
2022/09/09 08:31:16;;;;;;;10.45;4.30;;;16.50;99.90;;;;;;5094172;28;20039;-73
2022/09/09 08:33:45;;;;;;;11.85;4.68;;;16.50;99.90;;;;;;5092974;28;20040;-73
2022/09/09 08:36:15;;;;;;;10.80;4.93;;;16.50;99.90;;;;;;5092274;28;20075;-73
2022/09/09 08:38:41;;;;;;;11.20;5.53;;;16.50;99.90;;;;;;5092734;28;20410;-73
2022/09/09 08:41:31;;;;;;;7.28;5.05;;;16.60;99.90;;;;;;5094599;28;20050;-72
2022/09/09 08:44:18;;;;;;;8.50;4.25;;;16.60;99.90;;;;;;5109363;28;20031;-73
2022/09/09 08:47:02;;;;;;;10.75;4.55;;;16.70;99.90;;;;;;5098343;28;20433;-71
2022/09/09 08:49:46;;;;;;;10.43;4.78;;;16.80;99.90;;;;;;5103945;28;20044;-73
2022/09/09 08:52:25;;;;;;;9.55;4.72;;;16.70;99.90;;;;;;5100646;28;20040;-73
2022/09/09 08:54:51;;;;;;;9.18;4.70;;;16.80;99.90;;;;;;5106071;28;20754;-73
2022/09/09 08:57:28;;;;;;;12.13;5.22;;;16.90;99.90;;;;;;5092932;28;20036;-73
2022/09/09 08:59:56;;;;;;;9.00;4.40;;;16.90;99.90;;;;;;5075899;28;20039;-72
2022/09/09 09:03:02;;;;;;;9.25;4.65;;;17.00;99.90;;;;;;5093000;28;20040;-74
2022/09/09 09:05:47;;;;;;;9.00;4.28;;;17.10;99.90;;;;;;5092629;28;20109;-74
2022/09/09 09:08:12;;;;;;;9.00;4.53;;;17.20;99.90;;;;;;5092843;28;20096;-73
2022/09/09 09:10:38;;;;;;;14.48;5.07;;;17.30;99.90;;;;;;5074901;28;20040;-73
2022/09/09 09:13:20;;;;;;;10.77;4.78;;;17.40;99.90;;;;;;5092934;28;20061;-73
2022/09/09 09:15:52;;;;;;;9.10;4.45;;;17.50;99.90;;;;;;5099491;28;20118;-75
2022/09/09 09:18:18;;;;;;;11.23;4.35;;;17.50;99.90;;;;;;5104337;28;20106;-73
2022/09/09 09:21:05;;;;;;;10.38;4.70;;;17.60;99.90;;;;;;5115130;27;20544;-73
2022/09/09 09:23:40;;;;;;;11.98;4.68;;;17.80;99.90;;;;;;5122364;27;20047;-73
2022/09/09 09:26:08;;;;;;;8.13;4.65;;;17.90;99.90;;;;;;5094944;28;20057;-73
2022/09/09 09:28:36;;;;;;;12.43;4.60;;;18.00;99.90;;;;;;5114607;28;20420;-73
2022/09/09 09:31:12;;;;;;;8.88;4.60;;;18.00;99.90;;;;;;5108985;28;20539;-73
2022/09/09 09:33:40;;;;;;;9.23;4.55;;;18.10;99.90;;;;;;5109963;28;20027;-73
2022/09/09 09:36:08;;;;;;;10.73;4.05;;;18.10;99.90;;;;;;5093761;28;20119;-72
2022/09/09 09:38:35;;;;;;;11.75;4.63;;;18.20;99.90;;;;;;5096501;28;20134;-73
2022/09/09 09:41:01;;;;;;;11.30;4.20;;;18.20;99.90;;;;;;5107405;28;20043;-72
2022/09/09 09:43:35;;;;;;;13.43;3.70;;;18.20;99.90;;;;;;5099474;27;20509;-75
2022/09/09 09:46:04;;;;;;;8.05;3.20;;;18.20;99.90;;;;;;5111461;28;20047;-73
2022/09/09 09:48:30;;;;;;;12.73;3.70;;;18.20;99.90;;;;;;5104616;28;20058;-73
2022/09/09 09:51:15;;;;;;;10.80;3.60;;;18.10;99.90;;;;;;5105014;27;20036;-73
2022/09/09 09:53:41;;;;;;;10.38;3.13;;;18.00;99.90;;;;;;5117785;27;20036;-73
2022/09/09 09:56:12;;;;;;;7.32;3.17;;;18.00;99.90;;;;;;5109300;28;20564;-74
2022/09/09 09:58:50;;;;;;;9.00;3.30;;;18.20;99.90;;;;;;5101556;28;20048;-73
2022/09/09 10:01:29;;;;;;;10.27;2.97;;;18.30;99.90;;;;;;5106904;27;20055;-73
2022/09/09 10:04:15;;;;;;;7.85;2.83;;;18.40;99.90;;;;;;5112656;28;20036;-72
2022/09/09 10:06:42;;;;;;;9.35;3.03;;;18.50;99.90;;;;;;5121792;27;20430;-73
2022/09/09 10:09:32;;;;;;;8.88;2.75;;;18.50;99.90;;;;;;5086948;27;20089;-73
2022/09/09 10:12:22;;;;;;;10.60;2.85;;;18.50;99.90;;;;;;5111897;28;20035;-73
2022/09/09 10:15:21;;;;;;;10.38;3.03;;;18.50;99.90;;;;;;5095924;28;20043;-73
2022/09/09 10:18:12;;;;;;;7.28;2.25;;;18.60;99.90;;;;;;5104449;28;20523;-73
2022/09/09 10:21:19;;;;;;;8.35;2.60;;;18.60;99.90;;;;;;5099249;28;20048;-73
2022/09/09 10:24:09;;;;;;;9.80;2.40;;;18.70;99.90;;;;;;5103885;27;20056;-73
2022/09/09 10:26:44;;;;;;;8.90;2.35;;;18.70;99.90;;;;;;5107508;28;20414;-73
2022/09/09 10:29:30;;;;;;;9.25;2.28;;;18.70;99.90;;;;;;5109817;28;20047;-78
2022/09/09 10:32:11;;;;;;;8.85;2.08;;;18.70;99.90;;;;;;5109103;28;20027;-73
2022/09/09 10:34:57;;;;;;;6.15;1.85;;;18.80;99.90;;;;;;5109897;28;20032;-72
2022/09/09 10:37:33;;;;;;;5.25;1.42;;;19.00;99.90;;;;;;5093376;28;20208;-72
2022/09/09 10:40:20;;;;;;;5.35;1.77;;;19.10;99.90;;;;;;5128357;27;20076;-73
2022/09/09 10:42:46;;;;;;;8.43;2.00;;;19.20;99.90;;;;;;5104859;28;20043;-72
2022/09/09 10:45:25;;;;;;;9.02;2.28;;;19.10;99.90;;;;;;5114805;28;20035;-72
2022/09/09 10:48:26;;;;;;;10.63;2.15;;;19.20;99.90;;;;;;5106250;28;20048;-72
2022/09/09 10:51:18;;;;;;;7.78;2.00;;;19.10;99.90;;;;;;5097836;28;20036;-73
2022/09/09 10:53:48;;;;;;;;;;;19.10;99.90;;;;;;5113060;28;20044;-72
2022/09/09 10:56:18;;;;;;;7.88;2.60;;;19.00;99.90;;;;;;5095195;28;19968;-72
2022/09/09 10:58:55;;;;;;;9.77;2.78;;;19.00;99.90;;;;;;5112851;28;20095;-72
2022/09/09 11:01:25;;;;;;;8.65;2.20;;;19.10;99.90;;;;;;5097883;28;20032;-72
2022/09/09 11:04:01;;;;;;;8.65;2.42;;;19.20;99.90;;;;;;5109464;28;20051;-71
2022/09/09 11:06:37;;;;;;;9.65;1.65;;;19.30;99.90;;;;;;5094671;28;20059;-72
2022/09/09 11:09:04;;;;;;;13.35;3.85;;;19.30;99.90;;;;;;5093496;28;20549;-72
2022/09/09 11:11:38;;;;;;;21.33;6.13;;;19.30;99.90;;;;;;5105466;28;20042;-72
2022/09/09 11:14:41;;;;;;;8.65;1.73;;;19.20;99.90;;;;;;5102037;28;20110;-71
2022/09/09 11:17:21;;;;;;;7.00;1.88;;;19.30;99.90;;;;;;5096172;28;20098;-72
2022/09/09 11:19:47;;;;;;;8.48;2.35;;;19.30;99.90;;;;;;5101439;27;20036;-72
2022/09/09 11:22:45;;;;;;;5.22;1.60;;;19.30;99.90;;;;;;5117936;27;20035;-72
2022/09/09 11:25:45;;;;;;;8.35;1.90;;;19.30;99.90;;;;;;5077544;28;20044;-72
2022/09/09 11:28:11;;;;;;;7.63;1.70;;;19.40;99.90;;;;;;5102983;28;20553;-72
2022/09/09 11:30:49;;;;;;;5.97;1.80;;;19.40;99.90;;;;;;5121228;27;20035;-71
2022/09/09 11:33:29;;;;;;;7.88;1.80;;;19.50;99.90;;;;;;5097581;27;20093;-71
2022/09/09 11:36:17;;;;;;;6.05;1.80;;;19.60;99.90;;;;;;5117898;27;20035;-71
2022/09/09 11:38:58;;;;;;;6.88;1.70;;;19.70;99.90;;;;;;5108577;28;20495;-72
2022/09/09 11:41:32;;;;;;;6.25;1.50;;;19.50;99.90;;;;;;5096308;28;20054;-71
2022/09/09 11:43:58;;;;;;;8.10;1.60;;;19.40;99.90;;;;;;5093697;28;20044;-71
2022/09/09 11:46:35;;;;;;;7.35;1.88;;;19.40;99.90;;;;;;5106210;28;20040;-72
2022/09/09 11:49:06;;;;;;;4.97;1.42;;;19.40;99.90;;;;;;5092217;28;20042;-72
2022/09/09 11:51:33;;;;;;;7.20;1.70;;;19.30;99.90;;;;;;5100664;28;20047;-72
2022/09/09 11:54:02;;;;;;;7.45;1.80;;;19.40;99.90;;;;;;5114454;28;20047;-71
2022/09/09 11:56:41;;;;;;;7.18;1.80;;;19.50;99.90;;;;;;5104489;28;20559;-71
2022/09/09 11:59:21;;;;;;;7.10;1.80;;;19.50;99.90;;;;;;5095957;27;20067;-71
2022/09/09 12:01:55;;;;;;;6.32;1.80;;;19.50;99.90;;;;;;5092439;28;20055;-71
2022/09/09 12:04:24;;;;;;;7.82;1.42;;;19.50;99.90;;;;;;5093312;27;20064;-71
2022/09/09 12:07:00;;;;;;;8.85;1.70;;;19.40;99.90;;;;;;5100026;28;20488;-72
2022/09/09 12:09:31;;;;;;;5.60;1.63;;;19.40;99.90;;;;;;5114314;28;20035;-71
2022/09/09 12:12:21;;;;;;;5.28;1.50;;;19.40;99.90;;;;;;5139718;27;20040;-71
2022/09/09 12:15:08;;;;;;;7.82;1.63;;;19.50;99.90;;;;;;5109991;28;20035;-70
2022/09/09 12:17:46;;;;;;;6.53;1.70;;;19.60;99.90;;;;;;5137172;27;20039;-71
2022/09/09 12:20:18;;;;;;;7.68;1.60;;;19.70;99.90;;;;;;5113947;28;20078;-71
2022/09/09 12:23:12;;;;;;;6.88;1.67;;;19.70;99.90;;;;;;5099522;28;20054;-71
2022/09/09 12:25:46;;;;;;;5.70;1.45;;;19.60;99.90;;;;;;5113726;28;20036;-71
2022/09/09 12:28:20;;;;;;;8.57;1.95;;;19.60;99.90;;;;;;5145542;27;20052;-71
2022/09/09 12:31:09;;;;;;;7.30;1.73;;;19.60;99.90;;;;;;5109506;28;20041;-71
2022/09/09 12:33:37;;;;;;;8.50;2.10;;;19.70;99.90;;;;;;5113254;28;20036;-71
2022/09/09 12:36:04;;;;;;;6.55;2.20;;;19.70;99.90;;;;;;5110059;28;20050;-71
2022/09/09 12:38:40;;;;;;;8.38;1.77;;;19.70;99.90;;;;;;5103627;28;20040;-71
2022/09/09 12:41:06;;;;;;;5.88;1.60;;;19.70;99.90;;;;;;5095188;28;20135;-71
2022/09/09 12:43:32;;;;;;;8.45;1.80;;;19.70;99.90;;;;;;5112341;28;20055;-76
2022/09/09 12:46:03;;;;;;;7.47;1.80;;;19.80;99.90;;;;;;5104546;28;20036;-77
2022/09/09 12:48:44;;;;;;;7.37;1.83;;;20.00;99.90;;;;;;5110814;28;20072;-77
2022/09/09 12:51:25;;;;;;;7.63;2.15;;;20.00;99.90;;;;;;5104444;28;20290;-77
2022/09/09 12:53:51;;;;;;;8.50;2.40;;;19.90;99.90;;;;;;5091605;28;20477;-77
2022/09/09 12:56:23;;;;;;;9.88;2.20;;;19.80;99.90;;;;;;5101644;28;20403;-77
2022/09/09 12:58:51;;;;;;;6.47;1.70;;;19.80;99.90;;;;;;5111104;28;20491;-77
2022/09/09 13:01:26;;;;;;;7.80;1.58;;;19.80;99.90;;;;;;5110129;28;20383;-77
2022/09/09 13:03:52;;;;;;;5.75;1.50;;;19.80;99.90;;;;;;5101676;28;20043;-76
2022/09/09 13:06:25;;;;;;;6.50;1.85;;;19.90;99.90;;;;;;5102898;28;20495;-76
2022/09/09 13:08:53;;;;;;;8.35;1.60;;;19.90;99.90;;;;;;5105678;28;20495;-76
2022/09/09 13:11:26;;;;;;;6.65;1.70;;;19.90;99.90;;;;;;5103337;28;20036;-76